Time;durP1;ratioP1;P1;durP2;ratioP2;P2;SDS_P1;SDS_P2;PMS_P1;PMS_P2;Temp;Humidity;BMP_temperature;BMP_pressure;BME280_temperature;BME280_humidity;BME280_pressure;Samples;Min_cycle;Max_cycle;Signal;HPM_P1;HPM_P2
2022/03/14 00:01:55;;;;;;;9.90;8.10;;;11.80;53.20;;;;;;6190620;23;20021;-77
2022/03/14 00:04:20;;;;;;;8.75;7.32;;;11.80;53.30;;;;;;6190814;23;20021;-77
2022/03/14 00:06:49;;;;;;;11.70;8.32;;;11.80;53.40;;;;;;6190370;23;20017;-77
2022/03/14 00:09:16;;;;;;;10.38;8.02;;;11.80;53.40;;;;;;6184376;23;20021;-78
2022/03/14 00:11:43;;;;;;;9.23;7.63;;;11.70;53.40;;;;;;6183265;23;20017;-78
2022/03/14 00:14:09;;;;;;;9.10;7.20;;;11.70;53.20;;;;;;6185943;23;20079;-77
2022/03/14 00:16:41;;;;;;;9.00;7.43;;;11.70;53.40;;;;;;6185852;23;20429;-78
2022/03/14 00:19:07;;;;;;;10.88;7.47;;;11.70;53.20;;;;;;6185752;23;20052;-77
2022/03/14 00:21:38;;;;;;;9.85;7.68;;;11.70;53.60;;;;;;6183735;23;20013;-77
2022/03/14 00:24:05;;;;;;;9.48;7.32;;;11.80;53.60;;;;;;6185455;23;20024;-77
2022/03/14 00:26:31;;;;;;;8.48;7.28;;;11.70;53.80;;;;;;6183840;23;20017;-77
2022/03/14 00:28:56;;;;;;;8.90;7.03;;;11.70;54.10;;;;;;6185876;23;20048;-78
2022/03/14 00:31:22;;;;;;;10.02;7.88;;;11.70;54.10;;;;;;6183256;23;20472;-77
2022/03/14 00:33:48;;;;;;;11.93;8.38;;;11.70;54.20;;;;;;6183741;23;20040;-78
2022/03/14 00:36:14;;;;;;;8.35;6.65;;;11.70;54.70;;;;;;6183737;23;20017;-78
2022/03/14 00:38:40;;;;;;;9.57;7.57;;;11.70;55.00;;;;;;6183398;23;20426;-78
2022/03/14 00:41:08;;;;;;;8.73;7.00;;;11.70;55.30;;;;;;6183364;23;20105;-78
2022/03/14 00:43:34;;;;;;;9.20;7.35;;;11.70;55.20;;;;;;6185349;23;20028;-78
2022/03/14 00:46:00;;;;;;;7.38;6.30;;;11.60;55.20;;;;;;6185213;23;20029;-77
2022/03/14 00:48:26;;;;;;;8.38;6.47;;;11.70;55.20;;;;;;6185643;23;20093;-77
2022/03/14 00:50:53;;;;;;;8.20;6.15;;;11.70;55.30;;;;;;6182798;23;20386;-77
2022/03/14 00:53:19;;;;;;;7.18;6.20;;;11.70;55.60;;;;;;6183080;23;20024;-78
2022/03/14 00:55:44;;;;;;;6.90;5.55;;;11.60;55.70;;;;;;6186780;23;20017;-78
2022/03/14 00:58:10;;;;;;;7.50;5.40;;;11.70;56.20;;;;;;6187482;23;20017;-78
2022/03/14 01:00:36;;;;;;;6.75;5.82;;;11.70;56.40;;;;;;6185031;23;20645;-77
2022/03/14 01:03:01;;;;;;;8.15;6.63;;;11.70;56.40;;;;;;6187220;23;20468;-78
2022/03/14 01:05:28;;;;;;;7.95;6.65;;;11.60;56.80;;;;;;6187591;23;20091;-78
2022/03/14 01:07:54;;;;;;;7.28;6.30;;;11.60;57.10;;;;;;6187165;23;20092;-77
2022/03/14 01:10:20;;;;;;;8.10;6.60;;;11.60;57.10;;;;;;6187261;23;20053;-78
2022/03/14 01:12:46;;;;;;;7.90;6.65;;;11.60;57.10;;;;;;6184784;23;20059;-78
2022/03/14 01:15:12;;;;;;;8.60;5.95;;;11.60;57.10;;;;;;6187516;23;20051;-78
2022/03/14 01:17:40;;;;;;;8.02;6.40;;;11.60;57.10;;;;;;6186651;23;20013;-78
2022/03/14 01:20:07;;;;;;;7.35;5.68;;;11.50;57.00;;;;;;6187453;23;20044;-77
2022/03/14 01:22:32;;;;;;;7.93;5.88;;;11.50;56.70;;;;;;6186935;23;20013;-77
2022/03/14 01:24:58;;;;;;;7.28;5.82;;;11.50;56.20;;;;;;6186889;23;20056;-78
2022/03/14 01:27:23;;;;;;;6.60;5.25;;;11.50;55.60;;;;;;6185191;23;20497;-77
2022/03/14 01:29:49;;;;;;;7.82;5.60;;;11.40;55.20;;;;;;6187228;23;20013;-77
2022/03/14 01:32:15;;;;;;;7.10;5.93;;;11.40;55.40;;;;;;6186850;23;20129;-77
2022/03/14 01:34:41;;;;;;;8.60;6.43;;;11.40;55.30;;;;;;6187094;23;20040;-78
2022/03/14 01:37:06;;;;;;;7.13;5.95;;;11.40;55.70;;;;;;6186851;23;20430;-77
2022/03/14 01:39:32;;;;;;;7.53;5.97;;;11.40;55.80;;;;;;6187339;23;20016;-78
2022/03/14 01:41:58;;;;;;;6.65;5.47;;;11.40;55.80;;;;;;6186570;23;20017;-77
2022/03/14 01:44:25;;;;;;;8.35;6.28;;;11.40;56.00;;;;;;6186929;23;20337;-77
2022/03/14 01:46:52;;;;;;;6.95;5.45;;;11.40;56.60;;;;;;6184379;23;20021;-77
2022/03/14 01:49:18;;;;;;;9.23;6.50;;;11.40;56.70;;;;;;6186534;23;20045;-77
2022/03/14 01:51:44;;;;;;;7.45;6.47;;;11.40;57.20;;;;;;6185000;23;20430;-77
2022/03/14 01:54:10;;;;;;;9.27;6.07;;;11.60;57.70;;;;;;6187032;23;20013;-77
2022/03/14 01:56:38;;;;;;;9.70;6.20;;;11.30;57.80;;;;;;6185367;23;20013;-78
2022/03/14 01:59:05;;;;;;;8.90;6.38;;;11.30;57.90;;;;;;6186870;23;20361;-77
2022/03/14 02:01:32;;;;;;;7.53;6.10;;;11.30;58.20;;;;;;6186898;23;20017;-77
2022/03/14 02:03:59;;;;;;;7.45;5.35;;;11.30;58.20;;;;;;6184844;23;20091;-78
2022/03/14 02:06:27;;;;;;;7.95;5.40;;;11.30;58.10;;;;;;6186734;23;20021;-78
2022/03/14 02:08:52;;;;;;;8.10;5.22;;;11.20;57.80;;;;;;6187119;23;20020;-78
2022/03/14 02:11:19;;;;;;;6.93;5.32;;;11.20;57.80;;;;;;6184611;23;20369;-77
2022/03/14 02:13:45;;;;;;;6.72;5.25;;;11.20;58.00;;;;;;6185930;23;20017;-78
2022/03/14 02:16:11;;;;;;;6.22;5.07;;;11.20;58.50;;;;;;6185220;23;20027;-78
2022/03/14 02:18:37;;;;;;;7.25;5.07;;;11.20;58.30;;;;;;6186324;23;20020;-78
2022/03/14 02:21:02;;;;;;;7.03;4.60;;;11.20;58.50;;;;;;6185895;23;20017;-78
2022/03/14 02:23:28;;;;;;;6.18;4.85;;;11.20;58.60;;;;;;6186699;23;20013;-78
2022/03/14 02:25:55;;;;;;;5.13;4.53;;;11.20;58.50;;;;;;6186413;23;20017;-78
2022/03/14 02:28:22;;;;;;;6.60;4.80;;;11.10;58.50;;;;;;6184638;23;20385;-78
2022/03/14 02:30:51;;;;;;;6.78;4.30;;;11.10;58.50;;;;;;6186182;23;20025;-77
2022/03/14 02:33:17;;;;;;;6.35;4.25;;;11.10;58.60;;;;;;6186584;23;20335;-78
2022/03/14 02:35:43;;;;;;;5.10;4.28;;;11.20;58.70;;;;;;6186410;23;20087;-78
2022/03/14 02:38:11;;;;;;;5.22;3.95;;;11.10;58.80;;;;;;6186684;23;20092;-78
2022/03/14 02:40:39;;;;;;;5.97;4.35;;;11.10;58.90;;;;;;6184211;23;20063;-78
2022/03/14 02:43:05;;;;;;;6.10;4.97;;;11.10;59.10;;;;;;6186299;23;20020;-77
2022/03/14 02:45:32;;;;;;;4.55;3.60;;;11.10;59.20;;;;;;6186021;23;20051;-78
2022/03/14 02:47:58;;;;;;;4.97;3.85;;;11.10;59.20;;;;;;6184921;23;20024;-78
2022/03/14 02:50:24;;;;;;;5.43;4.38;;;11.10;59.00;;;;;;6186201;23;20021;-77
2022/03/14 02:52:50;;;;;;;4.95;4.05;;;11.10;58.80;;;;;;6186188;23;20055;-77
2022/03/14 02:55:20;;;;;;;5.30;3.72;;;11.00;58.60;;;;;;6186266;23;20009;-77
2022/03/14 02:57:45;;;;;;;4.45;3.65;;;11.10;58.80;;;;;;6184357;23;20116;-78
2022/03/14 03:00:13;;;;;;;5.30;4.25;;;11.00;58.90;;;;;;6183889;23;20052;-78
2022/03/14 03:02:39;;;;;;;4.50;3.60;;;11.10;59.00;;;;;;6185538;23;20481;-77
2022/03/14 03:05:06;;;;;;;4.82;3.50;;;11.10;59.00;;;;;;6185827;23;20010;-77
2022/03/14 03:07:32;;;;;;;4.82;3.47;;;11.00;58.90;;;;;;6183906;23;20029;-78
2022/03/14 03:09:57;;;;;;;4.40;3.17;;;11.00;59.20;;;;;;6186812;23;20088;-77
2022/03/14 03:12:28;;;;;;;4.30;3.50;;;11.10;59.20;;;;;;6184033;23;20409;-78
2022/03/14 03:14:54;;;;;;;4.60;3.40;;;11.10;59.30;;;;;;6184800;23;20636;-78
2022/03/14 03:17:20;;;;;;;4.50;3.45;;;11.10;59.40;;;;;;6185269;23;20025;-77
2022/03/14 03:19:46;;;;;;;5.30;3.83;;;11.00;59.40;;;;;;6183906;23;20017;-78
2022/03/14 03:22:12;;;;;;;4.25;3.08;;;11.00;59.60;;;;;;6186118;23;20087;-78
2022/03/14 03:24:37;;;;;;;5.13;3.67;;;11.00;59.60;;;;;;6185684;23;20089;-77
2022/03/14 03:27:03;;;;;;;5.10;3.67;;;11.00;59.60;;;;;;6184322;23;20441;-78
2022/03/14 03:29:29;;;;;;;4.20;3.20;;;11.00;59.70;;;;;;6183836;23;20108;-78
2022/03/14 03:31:55;;;;;;;4.70;3.70;;;11.00;59.80;;;;;;6185830;23;20017;-78
2022/03/14 03:34:20;;;;;;;4.75;3.40;;;11.00;59.90;;;;;;6185347;23;20400;-78
2022/03/14 03:36:46;;;;;;;5.20;3.25;;;11.00;59.90;;;;;;6186375;23;20040;-77
2022/03/14 03:39:12;;;;;;;4.60;3.47;;;11.00;60.00;;;;;;6186342;23;20448;-78
2022/03/14 03:41:38;;;;;;;3.90;3.08;;;11.00;59.90;;;;;;6185817;23;20024;-77
2022/03/14 03:44:04;;;;;;;6.13;3.45;;;11.00;59.70;;;;;;6185996;23;20048;-77
2022/03/14 03:46:30;;;;;;;5.20;3.65;;;11.00;59.80;;;;;;6183711;23;20353;-77
2022/03/14 03:48:56;;;;;;;4.10;2.95;;;10.90;59.80;;;;;;6184231;23;20013;-77
2022/03/14 03:51:22;;;;;;;5.05;3.05;;;11.00;59.90;;;;;;6185390;23;20306;-77
2022/03/14 03:53:47;;;;;;;4.22;3.22;;;11.00;60.00;;;;;;6186398;23;20013;-77
2022/03/14 03:56:13;;;;;;;4.15;3.00;;;11.00;60.00;;;;;;6185876;23;20369;-78
2022/03/14 03:58:39;;;;;;;4.22;3.33;;;10.90;60.10;;;;;;6184295;23;20017;-77
2022/03/14 04:01:05;;;;;;;3.30;2.70;;;10.90;60.00;;;;;;6183468;23;20057;-77
2022/03/14 04:03:34;;;;;;;4.25;2.50;;;10.90;60.20;;;;;;6185375;23;20013;-77
2022/03/14 04:06:00;;;;;;;3.40;2.50;;;10.80;60.30;;;;;;6185943;23;20464;-77
2022/03/14 04:08:29;;;;;;;3.17;2.33;;;10.80;60.20;;;;;;6185842;23;20056;-78
2022/03/14 04:10:56;;;;;;;3.28;2.22;;;10.80;60.30;;;;;;6185957;23;20489;-77
2022/03/14 04:13:24;;;;;;;3.05;2.35;;;10.80;60.20;;;;;;6185844;23;20021;-78
2022/03/14 04:15:51;;;;;;;3.50;2.42;;;10.80;60.20;;;;;;6186209;23;20052;-78
2022/03/14 04:18:18;;;;;;;2.95;2.13;;;10.80;60.30;;;;;;6186121;23;20333;-77
2022/03/14 04:20:46;;;;;;;3.30;1.92;;;10.80;60.30;;;;;;6185700;23;20369;-78
2022/03/14 04:23:11;;;;;;;3.30;2.28;;;10.80;60.40;;;;;;6184010;23;20067;-78
2022/03/14 04:25:38;;;;;;;2.78;2.15;;;10.80;60.50;;;;;;6186094;23;20017;-78
2022/03/14 04:28:04;;;;;;;2.92;2.05;;;10.80;60.50;;;;;;6185839;23;20434;-78
2022/03/14 04:30:30;;;;;;;3.15;2.15;;;10.80;60.40;;;;;;6187400;23;20020;-77
2022/03/14 04:32:56;;;;;;;4.10;2.30;;;10.80;60.60;;;;;;6188377;23;20005;-77
2022/03/14 04:35:21;;;;;;;2.97;2.05;;;10.80;60.80;;;;;;6186457;23;20028;-77
2022/03/14 04:37:47;;;;;;;3.15;1.90;;;10.80;60.90;;;;;;6188191;23;20020;-77
2022/03/14 04:40:14;;;;;;;2.92;2.10;;;10.80;60.80;;;;;;6186252;23;20020;-78
2022/03/14 04:42:40;;;;;;;3.13;1.75;;;10.80;60.90;;;;;;6188021;23;20063;-77
2022/03/14 04:45:06;;;;;;;3.42;2.10;;;10.90;61.10;;;;;;6188136;23;20361;-77
2022/03/14 04:47:32;;;;;;;2.72;2.13;;;10.80;61.10;;;;;;6188050;23;20017;-77
2022/03/14 04:49:58;;;;;;;2.75;2.10;;;10.80;61.00;;;;;;6187832;23;20513;-77
2022/03/14 04:52:24;;;;;;;3.15;1.90;;;10.80;61.00;;;;;;6187632;23;20057;-77
2022/03/14 04:54:50;;;;;;;2.63;1.80;;;10.80;61.10;;;;;;6188496;23;20341;-77
2022/03/14 04:57:16;;;;;;;3.45;2.30;;;10.80;61.10;;;;;;6190048;23;20064;-78
2022/03/14 04:59:41;;;;;;;3.10;2.13;;;10.90;61.30;;;;;;6191370;23;20013;-78
2022/03/14 05:02:07;;;;;;;3.63;2.75;;;10.80;61.20;;;;;;6188465;23;20067;-78
2022/03/14 05:04:34;;;;;;;2.63;1.90;;;10.90;61.30;;;;;;6185612;23;20014;-78
2022/03/14 05:07:00;;;;;;;3.67;2.55;;;10.90;61.50;;;;;;6185713;23;20025;-78
2022/03/14 05:09:25;;;;;;;3.30;2.35;;;10.90;61.50;;;;;;6185471;23;20009;-77
2022/03/14 05:11:51;;;;;;;2.90;2.13;;;10.90;61.50;;;;;;6185926;23;20072;-78
2022/03/14 05:14:17;;;;;;;2.20;1.88;;;10.90;61.50;;;;;;6185542;23;20017;-78
2022/03/14 05:16:43;;;;;;;3.55;2.63;;;10.90;61.50;;;;;;6186056;23;20040;-78
2022/03/14 05:19:09;;;;;;;3.33;2.30;;;10.90;61.60;;;;;;6159975;23;20028;-78
2022/03/14 05:21:34;;;;;;;3.00;2.05;;;10.90;61.70;;;;;;6187210;23;20021;-78
2022/03/14 05:24:00;;;;;;;4.18;2.78;;;10.90;61.80;;;;;;6185155;23;20021;-78
2022/03/14 05:26:26;;;;;;;3.78;2.30;;;10.90;62.00;;;;;;6187269;23;20095;-78
2022/03/14 05:28:52;;;;;;;3.60;2.55;;;11.00;62.00;;;;;;6185285;23;20028;-78
2022/03/14 05:31:20;;;;;;;3.05;2.17;;;10.90;61.90;;;;;;6187650;23;20366;-78
2022/03/14 05:33:46;;;;;;;2.75;1.90;;;11.00;61.80;;;;;;6187720;23;20017;-78
2022/03/14 05:36:11;;;;;;;3.13;2.10;;;11.00;61.90;;;;;;6184912;23;20013;-77
2022/03/14 05:38:37;;;;;;;2.22;1.75;;;11.00;61.90;;;;;;6187216;23;20021;-78
2022/03/14 05:41:03;;;;;;;3.47;2.38;;;11.10;62.00;;;;;;6185110;23;20017;-78
2022/03/14 05:43:29;;;;;;;2.65;2.03;;;11.00;62.00;;;;;;6184688;23;20064;-78
2022/03/14 05:45:55;;;;;;;4.05;2.15;;;11.00;62.10;;;;;;6187273;23;20099;-78
2022/03/14 05:48:20;;;;;;;3.22;2.38;;;11.00;62.10;;;;;;6186768;23;20021;-78
2022/03/14 05:50:46;;;;;;;2.92;1.98;;;11.00;62.40;;;;;;6185287;23;20013;-79
2022/03/14 05:53:12;;;;;;;3.05;2.25;;;11.00;62.60;;;;;;6184410;23;20017;-77
2022/03/14 05:55:39;;;;;;;2.95;2.30;;;11.00;62.70;;;;;;6186733;23;20044;-78
2022/03/14 05:58:06;;;;;;;4.05;2.53;;;11.00;62.80;;;;;;6187153;23;20013;-78
2022/03/14 06:00:32;;;;;;;2.95;2.30;;;11.00;63.00;;;;;;6186720;23;20024;-78
2022/03/14 06:02:58;;;;;;;3.67;2.28;;;11.00;63.00;;;;;;6184668;23;20055;-77
2022/03/14 06:05:24;;;;;;;3.78;2.65;;;11.00;63.00;;;;;;6186384;23;20017;-77
2022/03/14 06:07:50;;;;;;;5.53;2.47;;;11.00;63.00;;;;;;6187257;23;20087;-78
2022/03/14 06:10:16;;;;;;;3.75;2.70;;;11.00;63.10;;;;;;6185112;23;20009;-78
2022/03/14 06:12:43;;;;;;;3.70;2.53;;;11.00;63.20;;;;;;6190564;23;20048;-78
2022/03/14 06:15:12;;;;;;;3.00;2.40;;;11.00;63.10;;;;;;6189644;23;20107;-78
2022/03/14 06:17:41;;;;;;;3.20;2.40;;;11.00;63.00;;;;;;6216297;23;20084;-78
2022/03/14 06:20:09;;;;;;;3.85;2.40;;;11.00;63.10;;;;;;6216760;23;20021;-80
2022/03/14 06:22:41;;;;;;;3.97;2.50;;;10.90;63.20;;;;;;6190477;23;20645;-78
2022/03/14 06:25:07;;;;;;;4.65;3.10;;;10.90;63.40;;;;;;6216158;23;20020;-77
2022/03/14 06:27:33;;;;;;;4.10;2.85;;;10.90;63.40;;;;;;6216860;23;20343;-77
2022/03/14 06:29:58;;;;;;;3.70;2.78;;;10.90;63.60;;;;;;6216801;23;20016;-77
2022/03/14 06:32:24;;;;;;;4.15;2.83;;;10.90;63.70;;;;;;6216527;23;20016;-78
2022/03/14 06:34:50;;;;;;;3.92;2.88;;;10.90;63.70;;;;;;6189197;23;20025;-78
2022/03/14 06:37:16;;;;;;;4.63;3.00;;;10.90;63.60;;;;;;6216123;23;20016;-78
2022/03/14 06:39:42;;;;;;;3.35;2.60;;;10.90;63.70;;;;;;6216403;23;20017;-82
2022/03/14 06:42:09;;;;;;;3.13;2.13;;;10.90;63.80;;;;;;6216261;23;20013;-82
2022/03/14 06:44:39;;;;;;;3.05;2.22;;;10.90;63.70;;;;;;6217069;23;20543;-82
2022/03/14 06:47:10;;;;;;;4.05;3.08;;;10.90;63.00;;;;;;6190030;23;20020;-79
2022/03/14 06:49:42;;;;;;;3.78;2.78;;;10.90;62.90;;;;;;6190480;23;20020;-78
2022/03/14 06:52:08;;;;;;;5.70;3.60;;;10.90;63.10;;;;;;6190367;23;20016;-79
2022/03/14 06:54:33;;;;;;;3.72;2.75;;;10.90;63.70;;;;;;6216693;23;20063;-79
2022/03/14 06:56:59;;;;;;;5.55;3.50;;;10.90;64.00;;;;;;6216744;23;20092;-79
2022/03/14 06:59:25;;;;;;;4.05;3.20;;;10.90;64.20;;;;;;6217213;23;20024;-78
2022/03/14 07:01:50;;;;;;;4.75;3.50;;;10.90;64.70;;;;;;6216349;23;20016;-78
2022/03/14 07:04:16;;;;;;;4.43;3.30;;;10.90;64.30;;;;;;6217096;23;20425;-79
2022/03/14 07:06:42;;;;;;;3.78;3.00;;;11.00;64.40;;;;;;6216916;23;20027;-79
2022/03/14 07:09:09;;;;;;;4.53;3.30;;;10.90;64.80;;;;;;6216847;23;20104;-79
2022/03/14 07:11:35;;;;;;;5.30;3.92;;;10.90;64.50;;;;;;6216365;23;20012;-79
2022/03/14 07:14:01;;;;;;;5.45;4.25;;;10.90;65.00;;;;;;6189826;23;20024;-78
2022/03/14 07:16:26;;;;;;;5.53;4.60;;;10.90;64.70;;;;;;6216565;23;20028;-78
2022/03/14 07:18:52;;;;;;;5.03;3.95;;;10.90;64.70;;;;;;6189472;23;20013;-79
2022/03/14 07:21:17;;;;;;;5.55;4.03;;;10.90;64.70;;;;;;6189965;23;20341;-79
2022/03/14 07:23:44;;;;;;;8.10;5.70;;;10.90;64.40;;;;;;6189968;23;20436;-79
2022/03/14 07:26:10;;;;;;;6.88;5.55;;;10.80;64.40;;;;;;6189343;23;20028;-79
2022/03/14 07:28:36;;;;;;;7.00;6.03;;;10.90;64.60;;;;;;6216762;23;20016;-79
2022/03/14 07:31:02;;;;;;;7.75;6.95;;;10.90;64.50;;;;;;6189712;23;20016;-79
2022/03/14 07:33:28;;;;;;;8.77;6.80;;;10.90;64.70;;;;;;6216426;23;20338;-79
2022/03/14 07:35:54;;;;;;;9.32;8.02;;;10.90;64.80;;;;;;6216716;23;20020;-79
2022/03/14 07:38:20;;;;;;;9.27;8.25;;;10.90;64.90;;;;;;6189525;23;20052;-79
2022/03/14 07:40:46;;;;;;;8.65;7.57;;;10.90;65.00;;;;;;6189400;23;20021;-79
2022/03/14 07:43:12;;;;;;;8.32;7.43;;;11.00;65.30;;;;;;6215916;23;20021;-79
2022/03/14 07:45:38;;;;;;;7.55;6.68;;;10.90;65.10;;;;;;6216622;23;20091;-80
2022/03/14 07:48:04;;;;;;;8.57;6.82;;;10.90;65.00;;;;;;6216229;23;20028;-80
2022/03/14 07:50:30;;;;;;;6.10;5.10;;;10.90;65.00;;;;;;6216460;23;20104;-80
2022/03/14 07:52:56;;;;;;;8.27;6.65;;;10.90;64.90;;;;;;6216145;23;20044;-79
2022/03/14 07:55:23;;;;;;;8.27;6.65;;;10.90;64.70;;;;;;6216680;23;20369;-79
2022/03/14 07:57:48;;;;;;;7.80;6.60;;;10.90;64.80;;;;;;6216464;23;20020;-79
2022/03/14 08:00:18;;;;;;;6.78;5.97;;;11.00;65.00;;;;;;6189767;23;20024;-79
2022/03/14 08:02:44;;;;;;;8.77;6.88;;;11.00;64.80;;;;;;6189497;23;20013;-79
2022/03/14 08:05:14;;;;;;;7.57;6.80;;;10.90;64.70;;;;;;6216060;23;20074;-79
2022/03/14 08:07:45;;;;;;;9.73;7.13;;;11.00;64.60;;;;;;6216256;23;20021;-79
2022/03/14 08:10:11;;;;;;;8.35;7.47;;;11.00;64.60;;;;;;6216607;23;20008;-79
2022/03/14 08:12:52;;;;;;;8.02;7.20;;;11.00;64.40;;;;;;6216025;23;20048;-79
2022/03/14 08:15:28;;;;;;;8.88;7.97;;;11.00;64.60;;;;;;6189872;23;20488;-79
2022/03/14 08:18:13;;;;;;;10.98;9.60;;;11.00;64.80;;;;;;6216372;23;20418;-79
2022/03/14 08:20:39;;;;;;;9.63;8.05;;;11.00;65.20;;;;;;6217316;23;20017;-79
2022/03/14 08:23:05;;;;;;;9.93;8.38;;;11.00;65.10;;;;;;6190462;23;20440;-80
2022/03/14 08:25:34;;;;;;;13.68;9.93;;;11.00;65.30;;;;;;6217619;23;20325;-79
2022/03/14 08:28:00;;;;;;;10.05;9.05;;;11.00;65.30;;;;;;6217302;23;20020;-80
2022/03/14 08:30:26;;;;;;;13.65;10.98;;;11.00;65.40;;;;;;6190233;23;20425;-78
2022/03/14 08:32:55;;;;;;;11.35;10.15;;;11.00;65.50;;;;;;6216709;23;20081;-79
2022/03/14 08:35:20;;;;;;;13.05;10.32;;;11.00;65.60;;;;;;6189933;23;20095;-79
2022/03/14 08:37:48;;;;;;;12.68;11.35;;;11.00;65.60;;;;;;6216923;23;20090;-79
2022/03/14 08:40:16;;;;;;;12.70;11.38;;;11.00;65.80;;;;;;6216110;23;20092;-79
2022/03/14 08:42:43;;;;;;;14.85;12.48;;;11.00;66.30;;;;;;6216417;23;20028;-79
2022/03/14 08:45:09;;;;;;;15.98;12.38;;;11.20;66.00;;;;;;6189962;23;20016;-79
2022/03/14 08:47:36;;;;;;;16.52;13.20;;;11.10;66.00;;;;;;6190052;23;20055;-79
2022/03/14 08:50:04;;;;;;;16.08;13.70;;;11.00;66.10;;;;;;6216731;23;20024;-79
2022/03/14 08:52:30;;;;;;;17.15;14.30;;;11.10;66.30;;;;;;6216707;23;20048;-79
2022/03/14 08:54:56;;;;;;;16.55;13.70;;;11.10;66.40;;;;;;6216590;23;20032;-79
2022/03/14 08:57:22;;;;;;;18.00;13.57;;;11.00;66.20;;;;;;6216185;23;20452;-79
2022/03/14 08:59:47;;;;;;;19.08;15.05;;;11.10;66.10;;;;;;6216482;23;20096;-78
2022/03/14 09:02:13;;;;;;;21.35;16.83;;;11.30;66.20;;;;;;6216249;23;20067;-78
2022/03/14 09:04:39;;;;;;;22.25;16.95;;;11.10;66.30;;;;;;6189693;23;20020;-79
2022/03/14 09:07:05;;;;;;;17.70;15.40;;;11.10;66.60;;;;;;6189339;23;20016;-78
2022/03/14 09:09:31;;;;;;;18.67;14.95;;;11.10;66.60;;;;;;6215711;23;20494;-78
2022/03/14 09:11:58;;;;;;;20.08;16.10;;;11.10;66.70;;;;;;6216077;23;20083;-80
2022/03/14 09:14:24;;;;;;;22.52;16.48;;;11.10;66.90;;;;;;6189099;23;20084;-79
2022/03/14 09:16:51;;;;;;;21.13;14.65;;;11.10;67.00;;;;;;6216593;23;20060;-79
2022/03/14 09:19:17;;;;;;;23.65;17.05;;;11.00;66.80;;;;;;6191056;23;20074;-79
2022/03/14 09:21:43;;;;;;;20.63;15.93;;;11.10;67.00;;;;;;6217789;23;20421;-78
2022/03/14 09:24:08;;;;;;;19.63;14.50;;;11.00;67.10;;;;;;6218160;23;20417;-79
2022/03/14 09:26:35;;;;;;;18.92;13.73;;;11.10;67.20;;;;;;6217628;23;20440;-78
2022/03/14 09:29:02;;;;;;;23.85;14.95;;;11.00;67.10;;;;;;6217475;23;20333;-78
2022/03/14 09:31:29;;;;;;;21.20;14.20;;;11.10;67.30;;;;;;6190572;23;20028;-78
2022/03/14 09:33:55;;;;;;;20.00;14.27;;;11.10;67.40;;;;;;6217686;23;20008;-77
2022/03/14 09:36:20;;;;;;;20.70;13.30;;;11.10;67.30;;;;;;6190964;23;20381;-78
2022/03/14 09:38:46;;;;;;;18.77;13.77;;;11.10;67.50;;;;;;6191013;23;20043;-78
2022/03/14 09:41:16;;;;;;;20.05;12.05;;;11.20;67.50;;;;;;6217267;23;20441;-78
2022/03/14 09:43:46;;;;;;;19.23;12.77;;;11.10;67.50;;;;;;6217247;23;20017;-77
2022/03/14 09:46:12;;;;;;;18.98;13.05;;;11.10;67.70;;;;;;6217155;23;20023;-79
2022/03/14 09:48:40;;;;;;;18.60;12.98;;;11.10;67.60;;;;;;6217602;23;20059;-79
2022/03/14 09:51:07;;;;;;;18.33;12.90;;;11.10;67.60;;;;;;6191014;23;20012;-79
2022/03/14 09:53:35;;;;;;;22.17;13.15;;;11.20;67.60;;;;;;6190574;23;20082;-79
2022/03/14 09:56:01;;;;;;;17.25;12.07;;;11.20;67.70;;;;;;6217368;23;20021;-79
2022/03/14 09:58:27;;;;;;;18.52;11.88;;;11.10;67.50;;;;;;6190271;23;20017;-79
2022/03/14 10:00:57;;;;;;;19.58;12.45;;;11.20;67.50;;;;;;6217581;23;20016;-79
2022/03/14 10:03:23;;;;;;;17.60;11.57;;;11.20;67.40;;;;;;6217083;23;20441;-79
2022/03/14 10:05:49;;;;;;;16.92;9.75;;;11.30;67.40;;;;;;6190606;23;20021;-79
2022/03/14 10:08:15;;;;;;;19.50;11.55;;;11.20;67.20;;;;;;6190296;23;20024;-79
2022/03/14 10:10:43;;;;;;;17.52;10.68;;;11.20;67.10;;;;;;6217285;23;20020;-79
2022/03/14 10:13:11;;;;;;;17.80;10.40;;;11.30;67.00;;;;;;6190163;23;20055;-78
2022/03/14 10:15:40;;;;;;;16.98;10.60;;;11.30;66.90;;;;;;6217290;23;20035;-78
2022/03/14 10:18:17;;;;;;;17.17;10.63;;;11.30;66.80;;;;;;6190768;23;20034;-78
2022/03/14 10:20:57;;;;;;;18.25;9.98;;;11.30;66.90;;;;;;6216749;23;20016;-78
2022/03/14 10:23:36;;;;;;;19.60;10.27;;;11.30;66.90;;;;;;6189907;23;20097;-78
2022/03/14 10:26:02;;;;;;;22.27;12.88;;;11.40;66.60;;;;;;6217239;23;20341;-78
2022/03/14 10:28:30;;;;;;;21.55;13.30;;;11.40;66.50;;;;;;6189697;23;20017;-78
2022/03/14 10:30:57;;;;;;;17.85;10.18;;;11.40;66.50;;;;;;6217012;23;20059;-78
2022/03/14 10:33:24;;;;;;;17.83;8.90;;;11.40;66.60;;;;;;6189891;23;20031;-78
2022/03/14 10:35:55;;;;;;;16.70;8.95;;;11.40;66.50;;;;;;6216987;23;20013;-78
2022/03/14 10:38:21;;;;;;;11.90;7.75;;;11.40;66.40;;;;;;6216318;23;20024;-78
2022/03/14 10:40:48;;;;;;;13.02;7.20;;;11.50;66.20;;;;;;6216577;23;20071;-78
2022/03/14 10:43:28;;;;;;;12.75;6.85;;;11.50;66.20;;;;;;6216756;23;20044;-78
2022/03/14 10:45:56;;;;;;;12.55;6.93;;;11.50;66.00;;;;;;6189687;23;20099;-78
2022/03/14 10:48:33;;;;;;;16.25;8.07;;;11.60;66.00;;;;;;6216767;23;20467;-78
2022/03/14 10:51:06;;;;;;;14.77;7.88;;;11.60;66.20;;;;;;6216404;23;20437;-78
2022/03/14 10:53:34;;;;;;;14.57;8.75;;;11.60;66.00;;;;;;6190436;23;20013;-79
2022/03/14 10:56:01;;;;;;;16.10;8.13;;;11.60;65.80;;;;;;6216777;23;20024;-79
2022/03/14 10:58:33;;;;;;;13.90;9.77;;;11.60;65.80;;;;;;6190250;23;20017;-78
2022/03/14 11:01:17;;;;;;;17.67;10.00;;;11.70;65.90;;;;;;6216519;23;20447;-78
2022/03/14 11:03:45;;;;;;;14.65;8.95;;;11.70;65.90;;;;;;6216855;23;20016;-79
2022/03/14 11:06:17;;;;;;;17.63;8.77;;;11.60;65.80;;;;;;6189788;23;20341;-78
2022/03/14 11:08:47;;;;;;;14.30;9.27;;;11.70;65.70;;;;;;6190033;23;20059;-78
2022/03/14 11:11:17;;;;;;;11.80;8.32;;;11.70;65.60;;;;;;6216030;23;20024;-78
2022/03/14 11:13:45;;;;;;;13.50;8.30;;;11.70;65.50;;;;;;6216495;23;20016;-77
2022/03/14 11:16:26;;;;;;;15.40;9.38;;;11.70;65.40;;;;;;6216421;23;20025;-78
2022/03/14 11:18:53;;;;;;;12.95;8.98;;;11.70;65.40;;;;;;6216513;23;20051;-78
2022/03/14 11:21:24;;;;;;;14.85;10.75;;;11.80;65.40;;;;;;6190062;23;20433;-79
2022/03/14 11:23:51;;;;;;;13.77;9.10;;;11.90;65.50;;;;;;6190117;23;20072;-79
2022/03/14 11:26:24;;;;;;;15.68;11.05;;;11.80;65.40;;;;;;6189566;23;20099;-79
2022/03/14 11:28:54;;;;;;;14.48;10.23;;;11.80;65.40;;;;;;6216150;23;20099;-79
2022/03/14 11:31:21;;;;;;;17.92;11.38;;;11.90;65.40;;;;;;6189799;23;20103;-78
2022/03/14 11:33:48;;;;;;;14.90;12.27;;;11.90;65.30;;;;;;6215932;23;20456;-79
2022/03/14 11:36:17;;;;;;;15.18;11.98;;;11.90;65.40;;;;;;6216325;23;20343;-78
2022/03/14 11:38:44;;;;;;;15.57;11.20;;;11.90;65.30;;;;;;6215859;23;20058;-78
2022/03/14 11:41:10;;;;;;;17.85;13.02;;;11.90;65.20;;;;;;6216235;23;20035;-78
2022/03/14 11:43:39;;;;;;;16.23;12.75;;;12.10;65.30;;;;;;6190057;23;20017;-81
2022/03/14 11:46:05;;;;;;;16.50;12.52;;;12.00;65.30;;;;;;6189518;23;20017;-80
2022/03/14 11:48:32;;;;;;;18.20;13.95;;;12.00;65.20;;;;;;6216529;23;20050;-80
2022/03/14 11:51:02;;;;;;;21.20;14.68;;;12.20;65.30;;;;;;6216603;23;20012;-80
2022/03/14 11:53:30;;;;;;;20.20;14.40;;;12.00;65.10;;;;;;6189763;23;20016;-80
2022/03/14 11:55:59;;;;;;;21.92;14.90;;;12.00;65.00;;;;;;6189842;23;20334;-80
2022/03/14 11:58:28;;;;;;;16.67;14.05;;;12.00;65.10;;;;;;6216881;23;20098;-80
2022/03/14 12:00:54;;;;;;;16.80;14.88;;;12.10;64.90;;;;;;6189854;23;20013;-80
2022/03/14 12:03:41;;;;;;;19.75;16.35;;;12.10;65.00;;;;;;6216322;23;20328;-82
2022/03/14 12:06:08;;;;;;;19.85;15.20;;;12.10;65.10;;;;;;6189421;23;20024;-81
2022/03/14 12:08:36;;;;;;;18.75;16.58;;;12.10;65.30;;;;;;6216427;23;20087;-82
2022/03/14 12:11:37;;;;;;;18.15;14.85;;;12.10;65.40;;;;;;6189169;23;20020;-79
2022/03/14 12:14:08;;;;;;;18.33;15.80;;;12.20;65.60;;;;;;6215823;23;20068;-80
2022/03/14 12:16:34;;;;;;;17.35;15.27;;;12.20;65.60;;;;;;6216470;23;20329;-80
2022/03/14 12:19:00;;;;;;;20.40;14.07;;;12.20;65.40;;;;;;6215960;23;20032;-80
2022/03/14 12:21:46;;;;;;;16.95;13.60;;;12.20;65.20;;;;;;6215942;23;20013;-80
2022/03/14 12:24:33;;;;;;;19.27;14.32;;;12.30;65.00;;;;;;6188654;23;20025;-79
2022/03/14 12:27:00;;;;;;;23.90;14.05;;;12.40;65.00;;;;;;6188883;23;20021;-80
2022/03/14 12:29:36;;;;;;;17.55;14.50;;;12.50;64.90;;;;;;6216197;23;20032;-80
2022/03/14 12:32:24;;;;;;;17.48;13.27;;;12.50;64.60;;;;;;6188902;23;20035;-80
2022/03/14 12:35:16;;;;;;;20.08;13.55;;;12.50;64.30;;;;;;6215774;23;20066;-80
2022/03/14 12:37:58;;;;;;;19.75;13.52;;;12.60;64.00;;;;;;6070584;23;20427;-79
2022/03/14 12:40:26;;;;;;;17.73;13.95;;;12.70;63.90;;;;;;6070557;23;20033;-81
2022/03/14 12:43:27;;;;;;;19.38;13.65;;;12.80;63.80;;;;;;6094665;23;20018;-80